• Join FlightAware (Why Join?)
  • Login
  • US Flag 
10:51AM EST


 

Airport Tracker/Info


-or-


 

Live Flight TrackerFlight Track Log ✈ N662US ✈ 30-Apr-2013 ✈ RJAA / NRT - KJFK

Flight Track Log - Related Links

Times and Time Zones

All times are in EDT time to prevent confusion due to time zone crossing. See the N662US flight status page for this flight to view local times or setup timezone preferences in your user account.

Time Position Orientation Groundspeed Altitude Reporting Facility
EDT Latitude Longitude Course Direction KTS MPH feet Rate Location/Type
02:30AM 35.8813 140.4633 28° Northeast  Level FlightAware Approximate
02:31AM 35.9979 140.5405 28° Northeast  Level FlightAware Approximate
02:32AM 36.1156 140.6187 28° Northeast  Level FlightAware Approximate
02:33AM 36.2333 140.6972 28° Northeast  Level FlightAware Approximate
02:34AM 36.3510 140.7759 28° Northeast  Level FlightAware Approximate
02:35AM 36.4686 140.8548 28° Northeast  Level FlightAware Approximate
02:36AM 36.5862 140.9340 28° Northeast  Level FlightAware Approximate
02:37AM 36.7037 141.0134 28° Northeast  Level FlightAware Approximate
02:37AM 35.4870 141.0450 29° Northeast 383 441 11,200  Level FlightAware
02:38AM 36.8211 141.0931 28° Northeast  Level FlightAware Approximate
02:39AM 36.9385 141.1730 29° Northeast  Level FlightAware Approximate
02:40AM 37.0559 141.2531 29° Northeast  Level FlightAware Approximate
02:40AM 35.4080 141.3900 106° East 422 486 16,000  Level FlightAware
02:41AM 35.3810 141.4780 111° Southeast 429 494 17,100 1,620 Climbing FlightAware
02:41AM 35.3480 141.5830 111° Southeast 434 499 18,300 1,320 Climbing FlightAware
02:43AM 35.2850 141.7890 110° East 452 520 20,300 1,080 Climbing FlightAware
02:44AM 35.2570 141.8780 111° Southeast 465 535 20,800 720 Climbing FlightAware
02:44AM 35.2120 142.0200 111° Southeast 490 564 21,400 780 Climbing FlightAware
02:45AM 35.1740 142.1530 109° East 510 587 22,100 660 Climbing FlightAware
02:46AM 35.1720 142.3160 91° East 539 620 22,700 780 Climbing FlightAware
02:47AM 35.1800 142.4620 86° East 551 634 23,400 1,020 Climbing FlightAware
02:48AM 35.1910 142.6760 86° East 561 646 24,700 1,020 Climbing FlightAware
02:49AM 35.1980 142.8050 86° East 568 654 25,300 480 Climbing FlightAware
02:49AM 35.2220 142.9230 76° East 569 655 25,400 60 Climbing FlightAware
02:50AM 35.2440 143.0300 76° East 569 655 25,400  Level FlightAware
02:51AM 35.2650 143.1360 76° East 569 655 25,400  Level FlightAware
02:51AM 35.2870 143.2420 76° East 569 655 25,400  Level FlightAware
02:52AM 35.3090 143.3490 76° East 569 655 25,400  Level FlightAware
02:53AM 35.3360 143.4820 76° East 569 655 25,400  Level FlightAware
02:56AM 35.6381 143.6760 28° Northeast  Level Estimated
02:57AM 35.7564 143.7525 28° Northeast  Level Estimated
02:58AM 35.8747 143.8292 28° Northeast  Level Estimated
02:59AM 35.9930 143.9061 28° Northeast  Level Estimated
03:00AM 36.1112 143.9833 28° Northeast  Level Estimated
03:01AM 36.2294 144.0607 28° Northeast  Level Estimated
03:02AM 36.3475 144.1383 28° Northeast  Level Estimated
03:03AM 36.4656 144.2162 28° Northeast  Level Estimated
03:04AM 36.5836 144.2943 28° Northeast  Level Estimated
03:05AM 36.7016 144.3726 28° Northeast  Level Estimated
03:06AM 36.8195 144.4512 28° Northeast  Level Estimated
03:07AM 36.9374 144.5300 28° Northeast  Level Estimated
03:08AM 37.0552 144.6091 28° Northeast  Level Estimated
03:09AM 37.1729 144.6884 28° Northeast  Level Estimated
03:10AM 37.2906 144.7680 28° Northeast  Level Estimated
03:11AM 37.4083 144.8478 28° Northeast  Level Estimated
03:12AM 37.5259 144.9278 28° Northeast  Level Estimated
03:13AM 37.6434 145.0081 28° Northeast  Level Estimated
03:14AM 37.7609 145.0887 28° Northeast  Level Estimated
03:15AM 37.8783 145.1696 29° Northeast  Level Estimated
03:16AM 37.9957 145.2506 29° Northeast  Level Estimated
03:17AM 38.1130 145.3320 29° Northeast  Level Estimated
03:18AM 38.2303 145.4136 29° Northeast  Level Estimated
03:19AM 38.3475 145.4955 29° Northeast  Level Estimated
03:20AM 38.4647 145.5776 29° Northeast  Level Estimated
03:21AM 38.5819 145.6601 29° Northeast  Level Estimated
03:22AM 38.6991 145.7429 29° Northeast  Level Estimated
03:23AM 38.8163 145.8260 29° Northeast  Level Estimated
03:24AM 38.9333 145.9093 29° Northeast  Level Estimated
03:25AM 39.0504 145.9929 29° Northeast  Level Estimated
03:26AM 39.1673 146.0768 29° Northeast  Level Estimated
03:27AM 39.2842 146.1610 29° Northeast  Level Estimated
03:28AM 39.4011 146.2454 29° Northeast  Level Estimated
03:29AM 39.5178 146.3301 29° Northeast  Level Estimated
03:30AM 39.6346 146.4151 29° Northeast  Level Estimated
03:31AM 39.7512 146.5004 29° Northeast  Level Estimated
03:32AM 39.8678 146.5860 29° Northeast  Level Estimated
03:33AM 39.9843 146.6719 29° Northeast  Level Estimated
03:34AM 40.1008 146.7581 30° Northeast  Level Estimated
03:35AM 40.2172 146.8446 30° Northeast  Level Estimated
03:36AM 40.3335 146.9313 30° Northeast  Level Estimated
03:37AM 40.4498 147.0184 30° Northeast  Level Estimated
03:38AM 40.5660 147.1058 30° Northeast  Level Estimated
03:39AM 40.6822 147.1935 30° Northeast  Level Estimated
03:40AM 40.7982 147.2814 30° Northeast  Level Estimated
03:41AM 40.9144 147.3698 30° Northeast  Level Estimated
03:42AM 41.0305 147.4586 30° Northeast  Level Estimated
03:43AM 41.1465 147.5476 30° Northeast  Level Estimated
03:44AM 41.2625 147.6369 30° Northeast  Level Estimated
03:45AM 41.3783 147.7266 30° Northeast  Level Estimated
03:46AM 41.4942 147.8166 30° Northeast  Level Estimated
03:47AM 41.6099 147.9069 30° Northeast  Level Estimated
03:48AM 41.7256 147.9975 30° Northeast  Level Estimated
03:49AM 41.8412 148.0885 30° Northeast  Level Estimated
03:50AM 41.9567 148.1798 30° Northeast  Level Estimated
03:51AM 42.0722 148.2714 30° Northeast  Level Estimated
03:52AM 42.1876 148.3634 31° Northeast  Level Estimated
03:53AM 42.3029 148.4556 31° Northeast  Level Estimated
03:54AM 42.4181 148.5483 31° Northeast  Level Estimated
03:55AM 42.5333 148.6413 31° Northeast  Level Estimated
03:56AM 42.6484 148.7346 31° Northeast  Level Estimated
03:57AM 42.7634 148.8282 31° Northeast  Level Estimated
03:58AM 42.8783 148.9222 31° Northeast  Level Estimated
03:59AM 42.9932 149.0166 31° Northeast  Level Estimated
04:00AM 43.1080 149.1113 31° Northeast  Level Estimated
04:01AM 43.2227 149.2064 31° Northeast  Level Estimated
04:02AM 43.3373 149.3018 31° Northeast  Level Estimated
04:03AM 43.4519 149.3976 31° Northeast  Level Estimated
04:04AM 43.5663 149.4937 31° Northeast  Level Estimated
04:05AM 43.6807 149.5903 31° Northeast  Level Estimated
04:06AM 43.7950 149.6871 31° Northeast  Level Estimated
04:07AM 43.9092 149.7844 32° Northeast  Level Estimated
04:08AM 44.0234 149.8820 32° Northeast  Level Estimated
04:09AM 44.1374 149.9800 32° Northeast  Level Estimated
04:10AM 44.2514 150.0784 32° Northeast  Level Estimated
04:11AM 44.3653 150.1772 32° Northeast  Level Estimated
04:12AM 44.4791 150.2763 32° Northeast  Level Estimated
04:13AM 44.5928 150.3759 32° Northeast  Level Estimated
04:14AM 44.7064 150.4758 32° Northeast  Level Estimated
04:15AM 44.8200 150.5761 32° Northeast  Level Estimated
04:16AM 44.9334 150.6768 32° Northeast  Level Estimated
04:17AM 45.0468 150.7780 32° Northeast  Level Estimated
04:18AM 45.1600 150.8795 32° Northeast  Level Estimated
04:19AM 45.2732 150.9814 32° Northeast  Level Estimated
04:20AM 45.3863 151.0837 32° Northeast  Level Estimated
04:21AM 45.4995 151.1866 32° Northeast  Level Estimated
04:22AM 45.6125 151.2899 33° Northeast  Level Estimated
04:23AM 45.7255 151.3936 33° Northeast  Level Estimated
04:24AM 45.8383 151.4977 33° Northeast  Level Estimated
04:25AM 45.9511 151.6023 33° Northeast  Level Estimated
04:26AM 46.0638 151.7073 33° Northeast  Level Estimated
04:27AM 46.1764 151.8127 33° Northeast  Level Estimated
04:28AM 46.2889 151.9185 33° Northeast  Level Estimated
04:29AM 46.4013 152.0248 33° Northeast  Level Estimated
04:30AM 46.5136 152.1315 33° Northeast  Level Estimated
04:31AM 46.6258 152.2387 33° Northeast  Level Estimated
04:32AM 46.7379 152.3463 33° Northeast  Level Estimated
04:33AM 46.8498 152.4543 33° Northeast  Level Estimated
04:34AM 46.9617 152.5628 33° Northeast  Level Estimated
04:35AM 47.0735 152.6718 34° Northeast  Level Estimated
04:36AM 47.1852 152.7812 34° Northeast  Level Estimated
04:37AM 47.2968 152.8911 34° Northeast  Level Estimated
04:38AM 47.4082 153.0014 34° Northeast  Level Estimated
04:39AM 47.5196 153.1122 34° Northeast  Level Estimated
04:40AM 47.6309 153.2235 34° Northeast  Level Estimated
04:41AM 47.7420 153.3352 34° Northeast  Level Estimated
04:42AM 47.8531 153.4475 34° Northeast  Level Estimated
04:43AM 47.9640 153.5602 34° Northeast  Level Estimated
04:44AM 48.0748 153.6734 34° Northeast  Level Estimated
04:45AM 48.1855 153.7871 34° Northeast  Level Estimated
04:46AM 48.2961 153.9012 34° Northeast  Level Estimated
04:47AM 48.4066 154.0159 35° Northeast  Level Estimated
04:48AM 48.5170 154.1311 35° Northeast  Level Estimated
04:49AM 48.6272 154.2468 35° Northeast  Level Estimated
04:50AM 48.7374 154.3629 35° Northeast  Level Estimated
04:51AM 48.8474 154.4796 35° Northeast  Level Estimated
04:52AM 48.9573 154.5968 35° Northeast  Level Estimated
04:53AM 49.0671 154.7146 35° Northeast  Level Estimated
04:54AM 49.1767 154.8328 35° Northeast  Level Estimated
04:55AM 49.2863 154.9516 35° Northeast  Level Estimated
04:56AM 49.3957 155.0709 35° Northeast  Level Estimated
04:56AM 48.2833 160.6833 54° Northeast 471 542 30,000  Level Anchorage Center
04:57AM 49.5050 155.1907 35° Northeast  Level Estimated
04:58AM 49.6142 155.3111 36° Northeast  Level Estimated
04:59AM 49.7232 155.4319 36° Northeast  Level Estimated
05:00AM 49.8321 155.5534 36° Northeast  Level Estimated
05:01AM 49.9409 155.6754 36° Northeast  Level Estimated
05:02AM 48.8125 161.8121 55° Northeast 471 542 30,000  Level FlightAware Transoceanic
05:03AM 48.8871 161.9753 55° Northeast 471 542 30,000  Level FlightAware Transoceanic
05:04AM 48.9616 162.1390 55° Northeast 471 542 30,000  Level FlightAware Transoceanic
05:05AM 49.0358 162.3032 55° Northeast 471 542 30,000  Level FlightAware Transoceanic
05:06AM 49.1098 162.4678 56° Northeast 471 542 30,000  Level FlightAware Transoceanic
05:07AM 49.1835 162.6330 56° Northeast 471 542 30,000  Level FlightAware Transoceanic
05:08AM 49.2570 162.7986 56° Northeast 471 542 30,000  Level FlightAware Transoceanic
05:09AM 49.3303 162.9647 56° Northeast 471 542 30,000  Level FlightAware Transoceanic
05:10AM 49.4033 163.1314 56° Northeast 471 542 30,000  Level FlightAware Transoceanic
05:11AM 49.4761 163.2985 56° Northeast 471 542 30,000  Level FlightAware Transoceanic
05:12AM 49.5487 163.4661 56° Northeast 471 542 30,000  Level FlightAware Transoceanic
05:13AM 49.6210 163.6342 57° Northeast 471 542 30,000  Level FlightAware Transoceanic
05:14AM 49.6931 163.8028 57° Northeast 471 542 30,000  Level FlightAware Transoceanic
05:15AM 49.7649 163.9720 57° Northeast 471 542 30,000  Level FlightAware Transoceanic
05:16AM 49.8365 164.1416 57° Northeast 471 542 30,000  Level FlightAware Transoceanic
05:17AM 49.9078 164.3117 57° Northeast 471 542 30,000  Level FlightAware Transoceanic
05:18AM 49.9789 164.4823 57° Northeast 471 542 30,000  Level FlightAware Transoceanic
05:19AM 50.0497 164.6534 57° Northeast 471 542 30,000  Level FlightAware Transoceanic
05:20AM 50.1203 164.8251 57° Northeast 471 542 30,000  Level FlightAware Transoceanic
05:21AM 50.1906 164.9972 58° Northeast 471 542 30,000  Level FlightAware Transoceanic
05:22AM 50.2606 165.1699 58° Northeast 471 542 30,000  Level FlightAware Transoceanic
05:23AM 50.3304 165.3430 58° Northeast 471 542 30,000  Level FlightAware Transoceanic
05:24AM 50.4000 165.5167 55° Northeast 471 542 30,000  Level FlightAware Transoceanic
05:25AM 50.4736 165.6799 55° Northeast 471 542 30,000  Level FlightAware Transoceanic
05:26AM 50.5470 165.8437 55° Northeast 471 542 30,000  Level FlightAware Transoceanic
05:27AM 50.6202 166.0080 55° Northeast 471 542 30,000  Level FlightAware Transoceanic
05:28AM 50.6931 166.1728 55° Northeast 471 542 30,000  Level FlightAware Transoceanic
05:29AM 50.7658 166.3381 55° Northeast 471 542 30,000  Level FlightAware Transoceanic
05:30AM 50.8383 166.5040 55° Northeast 471 542 30,000  Level FlightAware Transoceanic
05:31AM 50.9105 166.6703 56° Northeast 471 542 30,000  Level FlightAware Transoceanic
05:32AM 50.9825 166.8372 56° Northeast 471 542 30,000  Level FlightAware Transoceanic
05:33AM 51.0542 167.0045 56° Northeast 471 542 30,000  Level FlightAware Transoceanic
05:34AM 51.1257 167.1724 56° Northeast 471 542 30,000  Level FlightAware Transoceanic
05:35AM 51.1970 167.3409 56° Northeast 471 542 30,000  Level FlightAware Transoceanic
05:36AM 51.2680 167.5098 56° Northeast 471 542 30,000  Level FlightAware Transoceanic
05:37AM 51.3388 167.6792 56° Northeast 471 542 30,000  Level FlightAware Transoceanic
05:38AM 51.4094 167.8492 56° Northeast 471 542 30,000  Level FlightAware Transoceanic
05:39AM 51.4796 168.0197 57° Northeast 471 542 30,000  Level FlightAware Transoceanic
05:40AM 51.5497 168.1908 57° Northeast 471 542 30,000  Level FlightAware Transoceanic
05:41AM 51.6195 168.3623 57° Northeast 471 542 30,000  Level FlightAware Transoceanic
05:42AM 51.6890 168.5344 57° Northeast 471 542 30,000  Level FlightAware Transoceanic
05:42AM 51.5667 168.5500 58° Northeast 470 541 30,000  Level Anchorage Center
05:43AM 51.7583 168.7070 57° Northeast 471 542 30,000  Level FlightAware Transoceanic
05:43AM 51.6167 168.7000 62° Northeast 450 518 30,000  Level Anchorage Center
05:44AM 51.8274 168.8802 57° Northeast 471 542 30,000  Level FlightAware Transoceanic
05:44AM 51.6833 168.9000 62° Northeast 460 529 30,000  Level Anchorage Center
05:45AM 51.8961 169.0538 57° Northeast 471 542 30,000  Level FlightAware Transoceanic
05:45AM 51.7333 169.0500 62° Northeast 470 541 30,000  Level Anchorage Center
05:46AM 51.9647 169.2280 58° Northeast 471 542 30,000  Level FlightAware Transoceanic
05:46AM 51.8167 169.2500 56° Northeast 480 552 30,000  Level Anchorage Center
05:47AM 52.0329 169.4028 58° Northeast 471 542 30,000  Level FlightAware Transoceanic
05:47AM 51.8667 169.4000 62° Northeast 460 529 30,000  Level Anchorage Center
05:48AM 51.9333 169.6000 62° Northeast 460 529 30,000  Level Anchorage Center
05:49AM 52.0000 169.8000 62° Northeast 470 541 30,000  Level Anchorage Center
05:50AM 52.0500 169.9667 64° Northeast 460 529 30,000  Level Anchorage Center
05:51AM 52.1167 170.1500 59° Northeast 450 518 30,000  Level Anchorage Center
05:52AM 52.1667 170.3167 64° Northeast 450 518 30,000  Level Anchorage Center
05:53AM 52.2333 170.5167 61° Northeast 460 529 30,000  Level Anchorage Center
05:54AM 52.3000 170.6667 54° Northeast 460 529 30,000 540 Level Anchorage Center
05:55AM 52.3833 170.8500 53° Northeast 460 529 31,100 960 Climbing Anchorage Center
05:56AM 52.4500 170.9833 51° Northeast 470 541 32,000 420 Climbing Anchorage Center
05:57AM 52.5333 171.1667 53° Northeast 440 506 32,000  Level Anchorage Center
05:58AM 52.6000 171.3167 54° Northeast 460 529 32,000  Level Anchorage Center
05:59AM 52.6833 171.5000 53° Northeast 450 518 32,000  Level Anchorage Center
06:00AM 52.7500 171.6833 59° Northeast 430 495 32,000  Level Anchorage Center
06:01AM 52.8167 171.8167 50° Northeast 440 506 32,000  Level Anchorage Center
06:02AM 52.8833 172.0000 59° Northeast 450 518 32,000  Level Anchorage Center
06:03AM 52.9500 172.1500 54° Northeast 430 495 32,000  Level Anchorage Center
06:04AM 53.0333 172.3333 53° Northeast 460 529 32,000  Level Anchorage Center
06:05AM 53.1000 172.4833 53° Northeast 450 518 32,000  Level Anchorage Center
06:06AM 53.1667 172.6667 59° Northeast 430 495 32,000  Level Anchorage Center
06:07AM 53.2333 172.8167 53° Northeast 450 518 32,000  Level Anchorage Center
06:08AM 53.3167 173.0000 53° Northeast 450 518 32,000  Level Anchorage Center
06:09AM 53.3667 173.1500 61° Northeast 440 506 32,000  Level Anchorage Center
06:10AM 53.4500 173.3333 53° Northeast 450 518 32,000  Level Anchorage Center
06:11AM 53.5167 173.5333 61° Northeast 450 518 32,000  Level Anchorage Center
06:12AM 53.5833 173.6833 53° Northeast 450 518 32,000  Level Anchorage Center
06:13AM 53.6500 173.8667 58° Northeast 450 518 32,000  Level Anchorage Center
06:14AM 53.7167 174.0333 56° Northeast 440 506 32,000  Level Anchorage Center
06:15AM 53.7833 174.2167 58° Northeast 430 495 32,000  Level Anchorage Center
06:16AM 53.8500 174.3833 56° Northeast 450 518 32,000  Level Anchorage Center
06:17AM 53.9167 174.5667 58° Northeast 450 518 32,000  Level Anchorage Center
06:18AM 53.9667 174.7333 63° Northeast 440 506 32,000  Level Anchorage Center
06:20AM 54.1000 175.0833 57° Northeast 440 506 32,000  Level Anchorage Center
06:21AM 54.1667 175.2667 58° Northeast 440 506 32,000  Level Anchorage Center
06:22AM 54.2333 175.4333 56° Northeast 440 506 32,000  Level Anchorage Center
06:23AM 54.3000 175.6333 60° Northeast 440 506 32,000  Level Anchorage Center
06:24AM 54.3667 175.8167 58° Northeast 440 506 32,000  Level Anchorage Center
06:25AM 54.4167 175.9833 63° Northeast 440 506 32,000  Level Anchorage Center
06:26AM 54.4833 176.1833 60° Northeast 450 518 32,000  Level Anchorage Center
06:27AM 54.5500 176.3500 55° Northeast 440 506 32,000  Level Anchorage Center
06:28AM 54.6167 176.5500 60° Northeast 450 518 32,000  Level Anchorage Center
06:29AM 54.6667 176.7000 60° Northeast 440 506 32,000  Level Anchorage Center
06:30AM 54.7333 176.9000 60° Northeast 450 518 32,000  Level Anchorage Center
06:31AM 54.7833 177.0667 62° Northeast 440 506 32,000  Level Anchorage Center
06:32AM 54.8500 177.2667 60° Northeast 450 518 32,000  Level Anchorage Center
06:35AM 54.9814 177.5757 53° Northeast  Level FlightAware Approximate
06:42AM 55.5525 178.9665 54° Northeast  Level FlightAware Approximate
06:43AM 55.6328 179.1685 55° Northeast  Level FlightAware Approximate
06:44AM 55.7128 179.3713 55° Northeast  Level FlightAware Approximate
06:45AM 55.7924 179.5749 55° Northeast  Level FlightAware Approximate
06:46AM 55.8717 179.7794 55° Northeast  Level FlightAware Approximate
06:47AM 55.9506 179.9846 55° Northeast  Level FlightAware Approximate
06:48AM 56.0292 -179.8092 56° Northeast  Level FlightAware Approximate
06:49AM 56.1075 -179.6022 56° Northeast  Level FlightAware Approximate
06:50AM 56.1854 -179.3944 56° Northeast  Level FlightAware Approximate
06:51AM 56.2630 -179.1858 56° Northeast  Level FlightAware Approximate
06:52AM 56.3402 -178.9763 56° Northeast  Level FlightAware Approximate
06:53AM 56.4170 -178.7659 56° Northeast  Level FlightAware Approximate
06:54AM 56.4935 -178.5547 57° Northeast  Level FlightAware Approximate
06:55AM 56.5696 -178.3427 57° Northeast  Level FlightAware Approximate
06:56AM 56.6454 -178.1298 57° Northeast  Level FlightAware Approximate
06:57AM 56.7208 -177.9160 57° Northeast  Level FlightAware Approximate
06:58AM 56.7959 -177.7014 57° Northeast  Level FlightAware Approximate
06:59AM 56.8705 -177.4860 58° Northeast  Level FlightAware Approximate
07:00AM 56.9448 -177.2696 58° Northeast  Level FlightAware Approximate
07:01AM 57.0187 -177.0524 58° Northeast  Level FlightAware Approximate
07:02AM 57.0923 -176.8344 58° Northeast  Level FlightAware Approximate
07:03AM 57.1655 -176.6155 58° Northeast  Level FlightAware Approximate
07:04AM 57.2383 -176.3957 58° Northeast  Level FlightAware Approximate
07:05AM 57.3106 -176.1750 59° Northeast  Level FlightAware Approximate
07:06AM 57.3827 -175.9535 59° Northeast  Level FlightAware Approximate
07:07AM 57.4543 -175.7311 59° Northeast  Level FlightAware Approximate
07:08AM 57.5255 -175.5079 59° Northeast  Level FlightAware Approximate
07:09AM 57.5963 -175.2837 59° Northeast  Level FlightAware Approximate
07:10AM 57.6668 -175.0587 60° Northeast  Level FlightAware Approximate
07:11AM 57.7368 -174.8329 60° Northeast  Level FlightAware Approximate
07:11AM 57.1000 -174.7000 61° Northeast 470 541 32,000  Level Anchorage Center
07:12AM 57.8064 -174.6061 60° Northeast  Level FlightAware Approximate
07:12AM 57.1500 -174.4667 68° East 480 552 32,600  Level Anchorage Center
07:13AM 57.8756 -174.3785 60° Northeast  Level FlightAware Approximate
07:13AM 57.2000 -174.2500 67° East 470 541 33,000  Level Anchorage Center
07:14AM 57.9445 -174.1500 60° Northeast  Level FlightAware Approximate
07:14AM 57.2500 -174.0167 68° East 480 552 33,000  Level Anchorage Center
07:15AM 58.0129 -173.9206 61° Northeast  Level FlightAware Approximate
07:15AM 57.3000 -173.7833 68° East 480 552 33,000  Level Anchorage Center
07:16AM 58.0808 -173.6904 61° Northeast  Level FlightAware Approximate
07:16AM 57.3500 -173.5667 67° East 470 541 33,000  Level Anchorage Center
07:17AM 57.4000 -173.3333 68° East 480 552 33,000  Level Anchorage Center
07:18AM 57.4500 -173.1000 68° East 480 552 33,000  Level Anchorage Center
07:19AM 57.5000 -172.8667 68° East 480 552 33,000  Level Anchorage Center
07:20AM 57.5500 -172.6333 68° East 470 541 33,000  Level Anchorage Center
07:21AM 57.6000 -172.4000 68° East 490 564 33,000  Level Anchorage Center
07:22AM 57.6500 -172.2167 63° Northeast 480 552 33,000  Level Anchorage Center
07:23AM 57.7000 -171.9833 68° East 490 564 33,000  Level Anchorage Center
07:24AM 57.7500 -171.7333 69° East 490 564 33,000  Level Anchorage Center
07:25AM 57.8000 -171.5000 68° East 490 564 33,000  Level Anchorage Center
07:26AM 57.8500 -171.2500 69° East 480 552 33,000  Level Anchorage Center
07:27AM 57.9000 -171.0167 68° East 490 564 33,000  Level Anchorage Center
07:28AM 57.9333 -170.7667 76° East 490 564 33,000  Level Anchorage Center
07:29AM 57.9667 -170.5167 76° East 500 575 33,000  Level Anchorage Center
07:30AM 58.0000 -170.2500 77° East 500 575 33,000  Level Anchorage Center
07:31AM 58.0333 -170.0000 76° East 490 564 33,000  Level Anchorage Center
07:32AM 58.0667 -169.7333 77° East 500 575 33,000  Level Anchorage Center
07:33AM 58.0833 -169.4667 83° East 490 564 33,000  Level Anchorage Center
07:34AM 58.1167 -169.2167 76° East 500 575 33,000  Level Anchorage Center
07:35AM 58.1333 -168.9333 84° East 510 587 33,000  Level Anchorage Center
07:36AM 58.1667 -168.6833 76° East 500 575 33,000  Level Anchorage Center
07:37AM 58.2000 -168.4167 77° East 510 587 33,000  Level Anchorage Center
07:38AM 58.2167 -168.1500 83° East 500 575 33,000  Level Anchorage Center
07:39AM 58.2500 -167.8833 77° East 510 587 33,000  Level Anchorage Center
07:40AM 58.2667 -167.6167 83° East 500 575 33,000  Level Anchorage Center
07:41AM 58.3000 -167.3500 77° East 510 587 33,000  Level Anchorage Center
07:42AM 58.3167 -167.0833 83° East 510 587 33,000  Level Anchorage Center
07:43AM 58.3333 -166.8167 83° East 510 587 33,000  Level Anchorage Center
07:44AM 58.3500 -166.5667 83° East 520 598 33,000  Level Anchorage Center
07:45AM 58.3833 -166.3000 76° East 520 598 33,000  Level Anchorage Center
07:46AM 58.4000 -166.0167 83° East 510 587 33,000  Level Anchorage Center
07:47AM 58.4333 -165.7500 76° East 510 587 33,000  Level Anchorage Center
07:48AM 58.4500 -165.4833 83° East 510 587 33,000  Level Anchorage Center
07:49AM 58.4667 -165.2000 83° East 520 598 33,000  Level Anchorage Center
07:50AM 58.4833 -164.9333 83° East 510 587 33,000  Level Anchorage Center
07:51AM 58.5000 -164.7167 82° East 520 598 33,000  Level Anchorage Center
07:52AM 58.5167 -164.4333 83° East 520 598 33,000  Level Anchorage Center
07:53AM 58.5333 -164.1500 83° East 520 598 33,000  Level Anchorage Center
07:54AM 58.5500 -163.8833 83° East 530 610 33,000  Level Anchorage Center
07:55AM 58.5667 -163.6000 83° East 520 598 33,000  Level Anchorage Center
07:56AM 58.5833 -163.3167 83° East 520 598 33,000  Level Anchorage Center
07:57AM 58.6000 -163.0333 83° East 530 610 33,000  Level Anchorage Center
07:58AM 58.6167 -162.7500 83° East 530 610 33,000  Level Anchorage Center
07:59AM 58.6333 -162.4167 84° East 520 598 33,000  Level Anchorage Center
08:00AM 58.6500 -162.1333 83° East 530 610 33,000  Level Anchorage Center
08:01AM 58.6667 -161.8333 84° East 540 621 33,000  Level Anchorage Center
08:02AM 58.6667 -161.5667 90° East 530 610 33,000  Level Anchorage Center
08:03AM 58.6667 -161.2667 90° East 540 621 33,000  Level Anchorage Center
08:04AM 58.6833 -160.9667 84° East 540 621 33,000  Level Anchorage Center
08:05AM 58.6833 -160.6667 90° East 550 633 33,000  Level Anchorage Center
08:06AM 58.7000 -160.3667 84° East 550 633 33,000  Level Anchorage Center
08:07AM 58.7000 -160.0667 90° East 560 644 33,000  Level Anchorage Center
08:08AM 58.7000 -159.7667 90° East 550 633 33,000  Level Anchorage Center
08:09AM 58.7167 -159.4667 84° East 560 644 33,000  Level Anchorage Center
08:10AM 58.7167 -159.1667 90° East 550 633 33,000  Level Anchorage Center
08:11AM 58.7167 -158.8667 90° East 570 656 33,000  Level Anchorage Center
08:12AM 58.7167 -158.5500 90° East 570 656 33,000  Level Anchorage Center
08:13AM 58.7167 -158.2500 90° East 560 644 33,000  Level Anchorage Center
08:14AM 58.7167 -157.9333 90° East 570 656 33,000  Level Anchorage Center
08:15AM 58.7167 -157.6333 90° East 570 656 33,000  Level Anchorage Center
08:16AM 58.7167 -157.3333 90° East 570 656 33,000  Level Anchorage Center
08:17AM 58.7167 -157.0167 90° East 560 644 33,000  Level Anchorage Center
08:18AM 58.7167 -156.7167 90° East 560 644 33,000  Level Anchorage Center
08:19AM 58.7167 -156.4000 90° East 580 667 33,000  Level Anchorage Center
08:21AM 58.7000 -155.7833 93° East 580 667 33,000  Level Anchorage Center
08:22AM 58.7000 -155.4667 90° East 580 667 33,000  Level Anchorage Center
08:23AM 58.7000 -155.1500 90° East 580 667 33,000  Level Anchorage Center
08:24AM 58.6833 -154.8333 96° East 590 679 33,000  Level Anchorage Center
08:25AM 58.6833 -154.5333 90° East 580 667 33,000  Level Anchorage Center
08:26AM 58.6667 -154.2167 96° East 580 667 33,000  Level Anchorage Center
08:27AM 58.6667 -153.8833 90° East 580 667 33,000  Level Anchorage Center
08:28AM 58.6500 -153.5667 96° East 580 667 33,000  Level Anchorage Center
08:29AM 58.6500 -153.2500 90° East 590 679 33,000  Level Anchorage Center
08:30AM 58.6333 -152.9333 96° East 590 679 33,000  Level Anchorage Center
08:31AM 58.6167 -152.6167 96° East 590 679 33,000  Level Anchorage Center
08:32AM 58.6000 -152.3000 96° East 590 679 33,000  Level Anchorage Center
08:33AM 58.6000 -151.9833 90° East 590 679 33,000  Level Anchorage Center
08:34AM 58.5833 -151.6667 96° East 590 679 33,000  Level Anchorage Center
08:35AM 58.5667 -151.3500 96° East 600 690 33,000  Level Anchorage Center
08:36AM 58.5500 -151.0333 96° East 600 690 33,000  Level Anchorage Center
08:37AM 58.5333 -150.7333 96° East 590 679 33,000  Level Anchorage Center
08:38AM 58.5167 -150.4167 96° East 580 667 33,000  Level Anchorage Center
08:39AM 58.5000 -150.1167 96° East 580 667 33,000  Level Anchorage Center
08:40AM 58.4833 -149.8167 96° East 580 667 33,000  Level Anchorage Center
08:41AM 58.4667 -149.5000 96° East 580 667 33,000  Level Anchorage Center
08:42AM 58.4500 -149.2000 96° East 580 667 33,000  Level Anchorage Center
08:43AM 58.4333 -148.8833 96° East 580 667 33,000  Level Anchorage Center
08:44AM 58.4333 -148.5667 90° East 580 667 33,000  Level Anchorage Center
08:45AM 58.4000 -148.2667 102° East 590 679 33,000  Level Anchorage Center
08:46AM 58.3833 -147.9500 96° East 590 679 33,000  Level Anchorage Center
08:47AM 58.3667 -147.6333 96° East 580 667 33,000  Level Anchorage Center
08:48AM 58.3500 -147.3167 96° East 590 679 33,000  Level Anchorage Center
08:49AM 58.3333 -147.0000 96° East 600 690 33,000  Level Anchorage Center
08:50AM 58.3167 -146.7000 96° East 590 679 33,000  Level Anchorage Center
08:51AM 58.3000 -146.4000 96° East 580 667 33,000  Level Anchorage Center
08:52AM 58.2667 -146.0833 101° East 590 679 33,000  Level Anchorage Center
08:53AM 58.2500 -145.7667 96° East 600 690 33,000  Level Anchorage Center
08:54AM 58.2333 -145.4667 96° East 590 679 33,000  Level Anchorage Center
08:55AM 58.2000 -145.0833 99° East 590 679 33,000  Level Anchorage Center
08:56AM 58.1667 -144.7833 102° East 590 679 33,000  Level Anchorage Center
08:57AM 58.1500 -144.4833 96° East 590 679 33,000  Level Anchorage Center
08:58AM 58.1167 -144.1667 101° East 590 679 33,000  Level Anchorage Center
08:59AM 58.1000 -143.8667 96° East 580 667 33,000  Level Anchorage Center
09:00AM 58.0667 -143.5667 102° East 590 679 33,000  Level Anchorage Center
09:01AM 58.0333 -143.2500 101° East 580 667 33,000  Level Anchorage Center
09:02AM 58.0000 -142.9500 102° East 580 667 33,000 480 Level Anchorage Center
09:03AM 57.9833 -142.7000 97° East 580 667 34,000 960 Climbing Anchorage Center
09:04AM 57.9500 -142.4000 102° East 580 667 35,000 480 Climbing Anchorage Center
09:05AM 57.9167 -142.1000 102° East 590 679 35,000  Level Anchorage Center
09:06AM 57.8833 -141.8000 102° East 590 679 35,000  Level Anchorage Center
09:07AM 57.8500 -141.5000 102° East 590 679 35,000  Level Anchorage Center
09:08AM 57.8000 -141.1833 106° East 600 690 35,000  Level Anchorage Center
09:09AM 57.7667 -140.9000 102° East 590 679 35,000  Level Anchorage Center
09:10AM 57.7167 -140.6000 107° East 590 679 35,000  Level Anchorage Center
09:11AM 57.6667 -140.3000 107° East 590 679 35,000  Level Anchorage Center
09:12AM 57.6333 -140.0000 102° East 600 690 35,000  Level Anchorage Center
09:13AM 57.5667 -139.6500 109° East 590 679 35,000  Level Anchorage Center
09:14AM 57.5333 -139.3500 102° East 590 679 35,000  Level Anchorage Center
09:15AM 57.4833 -139.0500 107° East 590 679 35,000  Level Anchorage Center
09:16AM 57.4333 -138.8000 110° East 600 690 35,000  Level Anchorage Center
09:17AM 57.4000 -138.5167 102° East 580 667 35,000  Level Anchorage Center
09:18AM 57.3500 -138.2333 108° East 590 679 35,000  Level Anchorage Center
09:19AM 57.3000 -137.9500 108° East 570 656 35,000  Level Anchorage Center
09:20AM 57.2500 -137.6500 107° East 590 679 35,000  Level Anchorage Center
09:21AM 57.2000 -137.3667 108° East 590 679 35,000  Level Anchorage Center
09:22AM 57.1333 -137.0833 113° Southeast 590 679 35,000  Level Anchorage Center
09:23AM 57.0833 -136.8000 108° East 580 667 35,000  Level Anchorage Center
09:24AM 57.0333 -136.5167 108° East 580 667 35,000  Level Anchorage Center
09:25AM 56.9833 -136.2333 108° East 580 667 35,000  Level Anchorage Center
09:26AM 56.9333 -135.9667 109° East 580 667 35,000  Level Anchorage Center
09:27AM 56.8667 -135.6500 111° Southeast 570 656 35,000  Level Anchorage Center
09:28AM 56.8167 -135.3667 108° East 570 656 35,000  Level Anchorage Center
09:29AM 56.7833 -135.0833 102° East 580 667 35,000  Level Anchorage Center
09:30AM 56.7333 -134.8000 108° East 590 679 35,000  Level Anchorage Center
09:31AM 56.7000 -134.5167 102° East 580 667 35,000  Level Anchorage Center
09:32AM 56.6500 -134.2333 108° East 590 679 35,000  Level Anchorage Center
09:33AM 56.6000 -133.9500 108° East 580 667 35,000  Level Anchorage Center
09:34AM 56.5667 -133.6667 102° East 580 667 35,000  Level Anchorage Center
09:35AM 56.5167 -133.4000 109° East 580 667 35,000  Level Anchorage Center
09:36AM 56.4667 -133.1167 108° East 580 667 35,000  Level Anchorage Center
09:37AM 56.4500 -132.8333 96° East 570 656 35,000  Level Anchorage Center
09:38AM 56.4333 -132.5500 96° East 560 644 35,000  Level Anchorage Center
09:39AM 56.4333 -132.2667 90° East 560 644 35,000  Level Anchorage Center
09:40AM 56.4333 -132.1167 90° East 560 644 35,000  Level Vancouver Center
09:41AM 56.4167 -131.8167 96° East 580 667 35,000  Level Vancouver Center
09:41AM 56.4000 -131.7000 104° East 560 644 35,000  Level Anchorage Center
09:42AM 56.3833 -131.4000 96° East 570 656 35,000  Level Anchorage Center
09:43AM 56.3833 -131.1333 90° East 570 656 35,000  Level Anchorage Center
09:44AM 56.3833 -131.0000 90° East 560 644 35,000  Level Vancouver Center
09:45AM 56.3667 -130.6833 95° East 570 656 35,000  Level Vancouver Center
09:46AM 56.3500 -130.4167 96° East 560 644 35,000  Level Vancouver Center
09:47AM 56.3167 -130.1333 102° East 560 644 35,000  Level Vancouver Center
09:48AM 56.3167 -129.9000 90° East 550 633 35,000  Level Vancouver Center
09:50AM 56.2833 -129.3167 96° East 560 644 35,000  Level Vancouver Center
09:51AM 56.2500 -128.8667 97° East 520 598 35,000  Level Vancouver Center
09:52AM 56.2333 -128.6333 97° East 560 644 35,000  Level Vancouver Center
09:53AM 56.2167 -128.3500 96° East 540 621 35,000  Level Vancouver Center
09:54AM 56.2000 -128.0500 96° East 530 610 35,000  Level Vancouver Center
09:55AM 56.1667 -127.8000 103° East 550 633 35,000  Level Vancouver Center
09:56AM 56.1500 -127.5333 96° East 550 633 35,000  Level Vancouver Center
09:57AM 56.1333 -127.2667 96° East 540 621 35,000  Level Vancouver Center
09:58AM 56.1000 -127.0000 103° East 540 621 35,000  Level Vancouver Center
09:59AM 56.0833 -126.7167 96° East 550 633 35,000  Level Vancouver Center
10:00AM 56.0333 -126.4500 108° East 550 633 35,000  Level Vancouver Center
10:01AM 56.0000 -126.1833 102° East 550 633 35,000  Level Vancouver Center
10:02AM 55.9833 -125.9333 97° East 540 621 35,000  Level Vancouver Center
10:03AM 55.9333 -125.6667 108° East 540 621 35,000  Level Vancouver Center
10:04AM 55.8833 -125.4000 108° East 540 621 35,000  Level Vancouver Center
10:05AM 55.8500 -125.1667 104° East 540 621 35,000  Level Vancouver Center
10:06AM 55.8333 -124.9000 96° East 540 621 35,000  Level Vancouver Center
10:07AM 55.7833 -124.6333 108° East 540 621 35,000  Level Vancouver Center
10:08AM 55.7500 -124.3833 103° East 540 621 35,000  Level Vancouver Center
10:10AM 55.6833 -124.1667 119° Southeast 540 621 35,000  Level Edmonton Center
10:10AM 55.6667 -123.8833 96° East 540 621 35,000  Level Vancouver Center
10:11AM 55.6167 -123.6167 108° East 530 610 35,000  Level Vancouver Center
10:12AM 55.5833 -123.3500 102° East 530 610 35,000  Level Vancouver Center
10:13AM 55.5500 -123.1167 104° East 530 610 35,000  Level Vancouver Center
10:14AM 55.5000 -122.8500 108° East 530 610 35,000  Level Vancouver Center
10:16AM 55.4333 -122.6500 120° Southeast 520 598 35,000  Level Edmonton Center
10:17AM 55.4000 -122.4167 104° East 520 598 35,000  Level Edmonton Center
10:18AM 55.3500 -122.1833 111° Southeast 520 598 35,000  Level Edmonton Center
10:19AM 55.3000 -121.9167 108° East 520 598 35,000  Level Edmonton Center
10:20AM 55.2667 -121.6833 104° East 520 598 35,000  Level Edmonton Center
10:21AM 55.2167 -121.4167 108° East 530 610 35,000  Level Edmonton Center
10:21AM 55.1833 -121.1333 102° East 530 610 35,000  Level Vancouver Center
10:22AM 55.1500 -120.8833 103° East 530 610 35,000  Level Vancouver Center
10:23AM 55.0833 -120.6500 116° Southeast 530 610 35,000  Level Vancouver Center
10:24AM 55.0500 -120.3833 102° East 530 610 35,000  Level Vancouver Center
10:26AM 54.9833 -120.2000 122° Southeast 520 598 35,000  Level Edmonton Center
10:27AM 54.9333 -119.9833 112° Southeast 520 598 35,000  Level Edmonton Center
10:28AM 54.8833 -119.7500 110° East 510 587 35,000  Level Edmonton Center
10:29AM 54.8500 -119.5000 103° East 510 587 35,000  Level Edmonton Center
10:30AM 54.7833 -119.2667 116° Southeast 520 598 35,000  Level Edmonton Center
10:31AM 54.7333 -119.0000 108° East 520 598 35,000  Level Edmonton Center
10:32AM 54.6833 -118.7833 112° Southeast 520 598 35,000  Level Edmonton Center
10:33AM 54.6333 -118.5500 110° East 520 598 35,000  Level Edmonton Center
10:34AM 54.5833 -118.3333 112° Southeast 520 598 35,000  Level Edmonton Center
10:35AM 54.5333 -118.0667 108° East 520 598 35,000  Level Edmonton Center
10:36AM 54.4833 -117.8500 112° Southeast 520 598 35,000  Level Edmonton Center
10:37AM 54.4333 -117.6167 110° East 520 598 35,000  Level Edmonton Center
10:38AM 54.3833 -117.3667 109° East 520 598 35,000  Level Edmonton Center
10:39AM 54.3167 -117.1500 118° Southeast 510 587 35,000  Level Edmonton Center
10:40AM 54.2833 -116.9000 103° East 510 587 35,000  Level Edmonton Center
10:41AM 54.2167 -116.6833 118° Southeast 510 587 35,000  Level Edmonton Center
10:42AM 54.1667 -116.4500 110° East 510 587 35,000  Level Edmonton Center
10:43AM 54.1167 -116.2333 111° Southeast 510 587 35,000  Level Edmonton Center
10:44AM 54.0667 -116.0167 111° Southeast 510 587 35,000  Level Edmonton Center
10:50AM 53.7440 -114.6650 111° Southeast 506 582 35,000  Level FlightAware
10:50AM 53.7140 -114.5490 114° Southeast 507 583 35,000  Level FlightAware
10:51AM 53.6790 -114.3990 111° Southeast 507 583 35,000  Level FlightAware
10:52AM 53.6140 -114.1600 115° Southeast 511 588 35,000  Level FlightAware
10:52AM 53.5750 -114.0120 114° Southeast 512 589 35,000  Level FlightAware
10:53AM 53.5370 -113.8630 113° Southeast 512 589 35,000  Level FlightAware
10:54AM 53.4880 -113.6860 115° Southeast 514 592 35,000  Level FlightAware
10:55AM 53.4470 -113.5340 114° Southeast 514 592 35,000  Level FlightAware
10:55AM 53.4030 -113.3700 114° Southeast 513 590 35,000  Level FlightAware
10:56AM 53.3640 -113.2280 115° Southeast 512 589 35,000  Level FlightAware
10:57AM 53.3250 -113.0840 114° Southeast 513 590 35,000  Level FlightAware
10:57AM 53.2860 -112.9410 114° Southeast 514 592 35,000  Level FlightAware
10:58AM 53.2390 -112.7720 115° Southeast 510 587 35,000  Level FlightAware
10:59AM 53.2020 -112.6240 113° Southeast 510 587 35,000  Level FlightAware
11:00AM 53.1620 -112.4700 113° Southeast 510 587 35,000  Level FlightAware
11:01AM 53.0880 -112.2350 118° Southeast 35,000  Level FlightAware
11:01AM 53.0440 -112.0810 115° Southeast 513 590 35,000  Level FlightAware
11:02AM 52.9980 -111.9210 115° Southeast 516 594 35,000  Level FlightAware
11:03AM 52.9580 -111.7800 115° Southeast 516 594 35,000  Level FlightAware
11:03AM 52.9160 -111.6370 116° Southeast 514 592 35,000  Level FlightAware
11:04AM 52.8800 -111.5150 116° Southeast 514 592 35,000  Level FlightAware
11:05AM 52.8330 -111.3550 116° Southeast 514 592 35,000  Level FlightAware
11:06AM 52.7900 -111.2090 116° Southeast 513 590 35,000  Level FlightAware
11:07AM 52.7280 -110.9970 116° Southeast 513 590 35,000  Level FlightAware
11:07AM 52.6920 -110.8780 116° Southeast 513 590 35,000  Level FlightAware
11:08AM 52.6340 -110.6870 117° Southeast 510 587 35,000  Level FlightAware
11:09AM 52.6000 -110.5740 116° Southeast 510 587 35,000  Level FlightAware
11:09AM 52.5650 -110.4550 116° Southeast 510 587 35,000  Level FlightAware
11:10AM 52.5300 -110.3360 116° Southeast 510 587 35,000  Level FlightAware
11:11AM 52.4940 -110.2180 117° Southeast 510 587 35,000  Level FlightAware
11:11AM 52.4500 -110.0700 116° Southeast 510 587 35,000  Level FlightAware
11:12AM 52.4240 -109.9810 116° Southeast 510 587 35,000  Level FlightAware
11:13AM 52.3800 -109.8340 116° Southeast 510 587 35,000  Level FlightAware
11:13AM 52.3450 -109.7150 116° Southeast 510 587 35,000  Level FlightAware
11:14AM 52.3100 -109.5970 116° Southeast 510 587 35,000  Level FlightAware
11:15AM 52.2660 -109.4500 116° Southeast 510 587 35,000  Level FlightAware
11:16AM 52.2310 -109.3320 116° Southeast 510 587 35,000  Level FlightAware
11:16AM 52.1950 -109.2150 117° Southeast 510 587 35,000  Level FlightAware
11:17AM 52.1600 -109.0970 116° Southeast 510 587 35,000  Level FlightAware
11:18AM 52.1250 -108.9800 116° Southeast 510 587 35,000  Level FlightAware
11:18AM 51.9833 -108.6833 116° Southeast 510 587 35,000  Level Winnipeg Center
11:19AM 51.9167 -108.4833 118° Southeast 510 587 35,000  Level Winnipeg Center
11:20AM 51.8667 -108.3000 114° Southeast 510 587 35,000  Level Edmonton Center
11:21AM 51.8000 -108.1000 118° Southeast 510 587 35,000  Level Edmonton Center
11:22AM 51.7167 -107.9167 126° Southeast 510 587 35,000  Level Edmonton Center
11:23AM 51.6667 -107.7167 112° Southeast 510 587 35,000  Level Edmonton Center
11:23AM 51.6500 -107.6833 129° Southeast 510 587 35,000  Level Winnipeg Center
11:29AM 51.2360 -106.4590 129° Southeast 513 590 35,100 120 Climbing FlightAware
11:30AM 51.1870 -106.3240 120° Southeast 516 594 35,900 1,080 Climbing FlightAware
11:30AM 51.1320 -106.1700 120° Southeast 515 593 36,800 720 Climbing FlightAware
11:31AM 51.0860 -106.0430 120° Southeast 518 596 37,000 120 Climbing FlightAware
11:32AM 51.0310 -105.8950 121° Southeast 519 597 37,000  Level FlightAware
11:32AM 50.9830 -105.7640 120° Southeast 519 597 37,000  Level FlightAware
11:33AM 50.9330 -105.6280 120° Southeast 519 597 37,000  Level FlightAware
11:34AM 50.8840 -105.4970 121° Southeast 518 596 37,000  Level FlightAware
11:35AM 50.8320 -105.3580 121° Southeast 516 594 37,000  Level FlightAware
11:35AM 50.7800 -105.2190 121° Southeast 516 594 37,000  Level FlightAware
11:36AM 50.7360 -105.1030 121° Southeast 516 594 37,000  Level FlightAware
11:37AM 50.6810 -104.9590 121° Southeast 516 594 37,000  Level FlightAware
11:37AM 50.6330 -104.8220 119° Southeast 517 595 37,000  Level FlightAware
11:38AM 50.5880 -104.6720 115° Southeast 517 595 37,000  Level FlightAware
11:39AM 50.5460 -104.5340 116° Southeast 518 596 37,000  Level FlightAware
11:39AM 50.4980 -104.3750 115° Southeast 518 596 37,000  Level FlightAware
11:40AM 50.4520 -104.2260 116° Southeast 519 597 37,000  Level FlightAware
11:41AM 50.4150 -104.1060 116° Southeast 520 598 37,000  Level FlightAware
11:42AM 50.3680 -103.9540 116° Southeast 519 597 37,000  Level FlightAware
11:42AM 50.3210 -103.8040 116° Southeast 518 596 37,000  Level FlightAware
11:43AM 50.2810 -103.6760 116° Southeast 518 596 37,000  Level FlightAware
11:44AM 50.2380 -103.5390 116° Southeast 518 596 37,000  Level FlightAware
11:44AM 50.1950 -103.4060 117° Southeast 517 595 37,000  Level FlightAware
11:45AM 50.1280 -103.1940 116° Southeast 518 596 37,000  Level FlightAware
11:46AM 50.0920 -103.0800 116° Southeast 518 596 37,000  Level FlightAware
11:47AM 50.0570 -102.9650 115° Southeast 518 596 37,000  Level FlightAware
11:47AM 50.0210 -102.8510 116° Southeast 518 596 37,000  Level FlightAware
11:48AM 49.9410 -102.6190 118° Southeast 513 590 37,000  Level FlightAware
11:49AM 49.8940 -102.4790 117° Southeast 513 590 37,000  Level FlightAware
11:50AM 49.8330 -102.2930 117° Southeast 511 588 37,000  Level FlightAware
11:50AM 49.7900 -102.1650 117° Southeast 510 587 37,000  Level FlightAware
11:51AM 49.7460 -102.0340 117° Southeast 511 588 37,000  Level FlightAware
11:52AM 49.6980 -101.8890 117° Southeast 513 590 37,000  Level FlightAware
11:53AM 49.6480 -101.7410 118° Southeast 514 592 37,000  Level FlightAware
11:53AM 49.6040 -101.6130 118° Southeast 516 594 37,000  Level FlightAware
11:54AM 49.5590 -101.4820 118° Southeast 516 594 37,000  Level FlightAware
11:55AM 49.5090 -101.3370 118° Southeast 515 593 37,000  Level FlightAware
11:55AM 49.4650 -101.2110 118° Southeast 514 592 37,000  Level FlightAware
11:56AM 49.4130 -101.0610 118° Southeast 514 592 37,000  Level FlightAware
11:57AM 49.3680 -100.9330 118° Southeast 516 594 37,000  Level FlightAware
11:57AM 49.3230 -100.8040 118° Southeast 517 595 37,000  Level FlightAware
11:58AM 49.2740 -100.6640 118° Southeast 516 594 37,000  Level FlightAware
11:59AM 49.2280 -100.5350 119° Southeast 516 594 37,000  Level FlightAware
11:59AM 49.1810 -100.4050 119° Southeast 515 593 37,000  Level FlightAware
12:00PM 49.1290 -100.2600 119° Southeast 515 593 37,000  Level FlightAware
12:01PM 49.0820 -100.1300 119° Southeast 515 593 37,000  Level FlightAware
12:02PM 49.0320 -99.9900 119° Southeast 515 593 37,000  Level FlightAware
12:02PM 48.9860 -99.8650 119° Southeast 517 595 37,000  Level FlightAware
12:03PM 48.9390 -99.7370 119° Southeast 518 596 37,000  Level FlightAware
12:04PM 48.8850 -99.5920 119° Southeast 521 600 37,000  Level FlightAware
12:04PM 48.8380 -99.4630 119° Southeast 523 602 37,000  Level FlightAware
12:05PM 48.7850 -99.3230 120° Southeast 523 602 37,000  Level FlightAware
12:06PM 48.7380 -99.1950 119° Southeast 521 600 37,000  Level FlightAware
12:06PM 48.6900 -99.0690 120° Southeast 521 600 37,000  Level FlightAware
12:07PM 48.6350 -98.9220 119° Southeast 522 601 37,000  Level FlightAware
12:08PM 48.5870 -98.7980 120° Southeast 521 600 37,000  Level FlightAware
12:09PM 48.5340 -98.6570 120° Southeast 521 600 37,000  Level FlightAware
12:09PM 48.4860 -98.5320 120° Southeast 521 600 37,000  Level FlightAware
12:10PM 48.4370 -98.4060 120° Southeast 522 601 37,000  Level FlightAware
12:11PM 48.3820 -98.2640 120° Southeast 525 604 37,000  Level FlightAware
12:11PM 48.3320 -98.1370 121° Southeast 525 604 37,000  Level FlightAware
12:12PM 48.2790 -98.0000 120° Southeast 526 605 37,000  Level FlightAware
12:13PM 48.2280 -97.8730 121° Southeast 527 606 37,000  Level FlightAware
12:13PM 48.1780 -97.7470 121° Southeast 530 610 37,000  Level FlightAware
12:14PM 48.1210 -97.6030 121° Southeast 530 610 37,000  Level FlightAware
12:15PM 48.0700 -97.4740 121° Southeast 533 613 37,000  Level FlightAware
12:16PM 48.0150 -97.3390 121° Southeast 534 615 37,000  Level FlightAware
12:16PM 47.9650 -97.2090 120° Southeast 538 619 37,000  Level FlightAware
12:17PM 47.9270 -97.0750 113° Southeast 556 640 37,000  Level FlightAware
12:18PM 47.8930 -96.9030 106° East 557 641 37,000  Level FlightAware
12:18PM 47.8640 -96.7560 106° East 556 640 37,000  Level FlightAware
12:19PM 47.8340 -96.6100 107° East 555 639 37,000  Level FlightAware
12:20PM 47.8010 -96.4490 107° East 541 623 37,000  Level FlightAware
12:21PM 47.7660 -96.2870 108° East 539 620 37,000  Level FlightAware
12:21PM 47.7360 -96.1470 108° East 540 621 37,000  Level FlightAware
12:22PM 47.7100 -96.0300 108° East 540 621 37,000  Level FlightAware
12:23PM 47.6730 -95.8590 108° East 541 623 37,000  Level FlightAware
12:23PM 47.6450 -95.7250 107° East 541 623 37,000  Level FlightAware
12:24PM 47.6200 -95.6050 107° East 541 623 37,000  Level FlightAware
12:25PM 47.5950 -95.4840 107° East 541 623 37,000  Level FlightAware
12:25PM 47.5700 -95.3630 107° East 541 623 37,000  Level FlightAware
12:26PM 47.5390 -95.2130 107° East 541 623 37,000  Level FlightAware
12:27PM 47.5140 -95.0920 107° East 541 623 37,000  Level FlightAware
12:28PM 47.4380 -94.8150 112° Southeast 546 628 37,000  Level FlightAware
12:28PM 47.3980 -94.6350 108° East 546 628 37,000  Level FlightAware
12:29PM 47.3560 -94.4590 109° East 543 625 37,000  Level FlightAware
12:30PM 47.3160 -94.2920 109° East 540 621 37,000  Level FlightAware
12:31PM 47.2790 -94.1340 109° East 540 621 37,000  Level FlightAware
12:31PM 47.2460 -93.9980 110° East 541 623 37,000  Level FlightAware
12:32PM 47.2120 -93.8570 109° East 543 625 37,000  Level FlightAware
12:33PM 47.1730 -93.6960 110° East 540 621 37,000  Level FlightAware
12:34PM 47.1400 -93.5600 110° East 538 619 37,000  Level FlightAware
12:34PM 47.1030 -93.4070 110° East 539 620 37,000  Level FlightAware
12:35PM 47.0690 -93.2710 110° East 537 618 37,000  Level FlightAware
12:36PM 47.0350 -93.1350 110° East 535 616 37,000  Level FlightAware
12:36PM 46.9950 -92.9770 110° East 533 613 37,000  Level FlightAware
12:37PM 46.9620 -92.8450 110° East 532 612 37,000  Level FlightAware
12:38PM 46.9240 -92.6940 110° East 532 612 37,000  Level FlightAware
12:38PM 46.8900 -92.5610 110° East 531 611 37,000  Level FlightAware
12:39PM 46.8550 -92.4270 111° Southeast 537 618 37,000  Level FlightAware
12:40PM 46.8150 -92.2710 110° East 537 618 37,000  Level FlightAware
12:41PM 46.7740 -92.1370 114° Southeast 533 613 37,000  Level FlightAware
12:41PM 46.7310 -91.9910 113° Southeast 540 621 37,000  Level FlightAware
12:42PM 46.6970 -91.8550 110° East 539 620 37,000  Level FlightAware
12:43PM 46.6610 -91.7210 111° Southeast 538 619 37,000  Level FlightAware
12:43PM 46.6180 -91.5680 112° Southeast 536 617 37,000  Level FlightAware
12:44PM 46.5790 -91.4370 113° Southeast 535 616 37,000  Level FlightAware
12:45PM 46.5400 -91.3040 113° Southeast 535 616 37,000  Level FlightAware
12:45PM 46.4960 -91.1570 113° Southeast 534 615 37,000  Level FlightAware
12:46PM 46.4580 -91.0270 113° Southeast 535 616 37,000  Level FlightAware
12:47PM 46.4190 -90.8960 113° Southeast 535 616 37,000  Level FlightAware
12:48PM 46.3730 -90.7430 113° Southeast 534 615 37,000  Level FlightAware
12:48PM 46.3340 -90.6130 113° Southeast 533 613 37,000  Level FlightAware
12:49PM 46.2910 -90.4680 113° Southeast 532 612 37,000  Level FlightAware
12:50PM 46.2510 -90.3370 114° Southeast 533 613 37,000  Level FlightAware
12:50PM 46.2120 -90.2090 114° Southeast 532 612 37,000  Level FlightAware
12:51PM 46.1650 -90.0570 114° Southeast 534 615 37,000  Level FlightAware
12:52PM 46.1250 -89.9260 114° Southeast 534 615 37,000  Level FlightAware
12:52PM 46.0810 -89.7850 114° Southeast 534 615 37,000  Level FlightAware
12:53PM 46.0410 -89.6560 114° Southeast 533 613 37,000  Level FlightAware
12:54PM 46.0020 -89.5310 114° Southeast 531 611 37,000  Level FlightAware
12:54PM 45.9640 -89.4090 114° Southeast 530 610 37,000  Level FlightAware
12:55PM 45.9140 -89.2490 114° Southeast 529 609 37,000  Level FlightAware
12:56PM 45.8700 -89.1120 115° Southeast 524 603 37,000  Level FlightAware
12:57PM 45.8240 -88.9680 115° Southeast 520 598 37,000  Level FlightAware
12:57PM 45.7950 -88.8770 115° Southeast 519 597 37,000  Level FlightAware
12:58PM 45.7570 -88.7540 114° Southeast 519 597 37,000  Level FlightAware
12:59PM 45.7150 -88.6210 114° Southeast 519 597 37,000  Level FlightAware
12:59PM 45.6820 -88.5140 114° Southeast 519 597 37,000  Level FlightAware
01:00PM 45.6160 -88.3240 116° Southeast 519 597 37,000  Level FlightAware
01:01PM 45.5720 -88.1920 115° Southeast 518 596 37,000  Level FlightAware
01:02PM 45.5310 -88.0660 115° Southeast 518 596 37,000  Level FlightAware
01:02PM 45.4880 -87.9370 115° Southeast 518 596 37,000  Level FlightAware
01:03PM 45.4390 -87.7860 115° Southeast 519 597 37,000  Level FlightAware
01:04PM 45.4040 -87.6800 115° Southeast 519 597 37,000  Level FlightAware
01:05PM 45.3460 -87.5120 116° Southeast 521 600 37,000  Level FlightAware
01:05PM 45.3100 -87.4010 115° Southeast 521 600 37,000  Level FlightAware
01:06PM 45.2590 -87.2530 116° Southeast 520 598 37,000  Level FlightAware
01:07PM 45.2180 -87.1290 115° Southeast 520 598 37,000  Level FlightAware
01:07PM 45.1700 -86.9920 116° Southeast 517 595 37,000  Level FlightAware
01:08PM 45.1270 -86.8690 116° Southeast 516 594 37,000  Level FlightAware
01:09PM 45.0880 -86.7500 115° Southeast 516 594 37,000  Level FlightAware
01:10PM 45.0360 -86.6040 117° Southeast 514 592 37,000  Level FlightAware
01:10PM 44.9940 -86.4830 116° Southeast 515 593 37,000  Level FlightAware
01:11PM 44.9580 -86.3800 116° Southeast 515 593 37,000  Level FlightAware
01:12PM 44.9090 -86.2430 117° Southeast 516 594 37,000  Level FlightAware
01:12PM 44.8630 -86.1110 116° Southeast 516 594 37,000  Level FlightAware
01:13PM 44.8270 -86.0090 116° Southeast 515 593 37,000  Level FlightAware
01:14PM 44.7720 -85.8540 117° Southeast 513 590 37,000  Level FlightAware
01:14PM 44.7250 -85.7240 117° Southeast 512 589 37,000  Level FlightAware
01:15PM 44.6780 -85.5920 117° Southeast 510 587 37,000  Level FlightAware
01:16PM 44.6370 -85.4770 117° Southeast 510 587 37,000  Level FlightAware
01:16PM 44.5970 -85.3600 116° Southeast 511 588 37,000  Level FlightAware
01:17PM 44.5500 -85.2180 115° Southeast 511 588 37,000  Level FlightAware
01:18PM 44.5120 -85.1070 116° Southeast 512 589 37,000  Level FlightAware
01:19PM 44.4630 -84.9670 116° Southeast 512 589 37,000  Level FlightAware
01:19PM 44.4210 -84.8460 116° Southeast 509 586 37,000  Level FlightAware
01:20PM 44.3750 -84.7130 116° Southeast 508 585 37,000  Level FlightAware
01:21PM 44.3330 -84.5940 116° Southeast 506 582 37,000  Level FlightAware
01:21PM 44.2930 -84.4780 116° Southeast 506 582 37,000  Level FlightAware
01:22PM 44.2510 -84.3600 116° Southeast 505 581 37,000  Level FlightAware
01:23PM 44.2110 -84.2470 116° Southeast 506 582 37,000  Level FlightAware
01:24PM 44.1580 -84.0990 116° Southeast 507 583 37,000  Level FlightAware
01:24PM 44.1170 -83.9820 116° Southeast 508 585 37,000  Level FlightAware
01:25PM 44.0740 -83.8640 117° Southeast 509 586 37,000  Level FlightAware
01:26PM 44.0270 -83.7320 116° Southeast 508 585 37,000  Level FlightAware
01:26PM 43.9910 -83.6340 117° Southeast 507 583 37,000  Level FlightAware
01:27PM 43.9390 -83.4880 116° Southeast 508 585 37,000  Level FlightAware
01:28PM 43.8960 -83.3720 117° Southeast 508 585 37,000  Level FlightAware
01:28PM 43.8530 -83.2560 117° Southeast 509 586 37,000  Level FlightAware
01:29PM 43.8040 -83.1210 117° Southeast 508 585 37,000  Level FlightAware
01:30PM 43.7640 -83.0130 117° Southeast 506 582 37,000  Level FlightAware
01:30PM 43.7190 -82.8910 117° Southeast 505 581 37,000  Level FlightAware
01:31PM 43.6770 -82.7790 117° Southeast 504 580 37,000  Level FlightAware
01:32PM 43.6480 -82.7030 118° Southeast 504 580 37,000  Level FlightAware
01:33PM 43.5910 -82.5500 117° Southeast 502 578 37,000  Level FlightAware
01:33PM 43.5470 -82.4330 117° Southeast 501 577 37,000  Level FlightAware
01:34PM 43.4970 -82.3030 118° Southeast 501 577 37,000  Level FlightAware
01:35PM 43.4560 -82.1960 118° Southeast 501 577 37,000  Level FlightAware
01:35PM 43.4140 -82.0850 117° Southeast 499 574 37,000  Level FlightAware
01:36PM 43.3690 -81.9690 118° Southeast 501 577 37,000  Level FlightAware
01:37PM 43.3050 -81.8020 118° Southeast 503 579 37,000  Level FlightAware
01:38PM 43.2510 -81.6640 118° Southeast 504 580 37,000  Level FlightAware
01:38PM 43.2010 -81.5350 118° Southeast 503 579 37,000  Level FlightAware
01:39PM 43.1570 -81.4240 118° Southeast 502 578 37,000  Level FlightAware
01:40PM 43.1080 -81.2990 118° Southeast 503 579 37,000  Level FlightAware
01:41PM 43.0620 -81.1840 119° Southeast 503 579 37,000  Level FlightAware
01:41PM 43.0130 -81.0610 119° Southeast 504 580 37,000  Level FlightAware
01:42PM 42.9670 -80.9470 119° Southeast 506 582 37,000  Level FlightAware
01:43PM 42.9150 -80.8190 119° Southeast 507 583 37,000  Level FlightAware
01:43PM 42.8710 -80.7120 119° Southeast 508 585 37,000  Level FlightAware
01:44PM 42.8240 -80.5960 119° Southeast 507 583 37,000  Level FlightAware
01:45PM 42.7730 -80.4720 119° Southeast 507 583 37,000  Level FlightAware
01:45PM 42.7270 -80.3620 120° Southeast 506 582 37,000  Level FlightAware
01:46PM 42.6820 -80.2520 119° Southeast 505 581 37,000  Level FlightAware
01:47PM 42.6300 -80.1290 120° Southeast 505 581 37,000  Level FlightAware
01:48PM 42.5830 -80.0160 119° Southeast 506 582 37,000  Level FlightAware
01:48PM 42.5310 -79.8910 119° Southeast 507 583 37,000  Level FlightAware
01:49PM 42.4870 -79.7870 120° Southeast 507 583 37,000  Level FlightAware
01:50PM 42.4380 -79.6720 120° Southeast 508 585 37,000  Level FlightAware
01:50PM 42.3850 -79.5490 120° Southeast 509 586 37,000  Level FlightAware
01:51PM 42.3460 -79.4570 120° Southeast 510 587 37,000  Level FlightAware
01:52PM 42.2950 -79.3380 120° Southeast 513 590 37,000  Level FlightAware
01:52PM 42.2410 -79.2120 120° Southeast 515 593 37,000  Level FlightAware
01:53PM 42.1950 -79.1000 119° Southeast 514 592 37,000  Level FlightAware
01:54PM 42.1560 -78.9660 111° Southeast 511 588 37,000  Level FlightAware
01:55PM 42.1280 -78.8460 107° East 511 588 37,000  Level FlightAware
01:55PM 42.0950 -78.7090 108° East 511 588 37,000  Level FlightAware
01:56PM 42.0650 -78.5860 108° East 511 588 37,000  Level FlightAware
01:57PM 42.0350 -78.4700 109° East 513 590 37,000  Level FlightAware
01:57PM 41.9990 -78.3330 109° East 515 593 37,000  Level FlightAware
01:58PM 41.9670 -78.2110 109° East 517 595 37,000  Level FlightAware
01:59PM 41.9410 -78.1100 109° East 517 595 37,000  Level FlightAware
01:59PM 41.9000 -77.9520 109° East 515 593 37,000  Level FlightAware
02:00PM 41.8680 -77.8330 110° East 514 592 37,000  Level FlightAware
02:01PM 41.8330 -77.6970 109° East 511 588 37,000  Level FlightAware
02:02PM 41.8020 -77.5820 110° East 509 586 37,000  Level FlightAware
02:02PM 41.7650 -77.4440 110° East 508 585 37,000  Level FlightAware
02:03PM 41.7340 -77.3290 110° East 508 585 37,000  Level FlightAware
02:04PM 41.7030 -77.2130 110° East 507 583 37,000  Level FlightAware
02:04PM 41.6730 -77.1040 110° East 505 581 37,000  Level FlightAware
02:05PM 41.6471 -77.0085 110° East 506 582 37,000 -780 Level FlightAware ADS-B
02:06PM 41.6013 -76.8409 110° East 510 587 35,900 -1,320 Descending FlightAware ADS-B
02:06PM 41.5736 -76.7413 110° East 511 588 35,100 -1,380 Descending FlightAware ADS-B
02:07PM 41.5313 -76.5890 110° East 514 592 34,000 -1,440 Descending FlightAware ADS-B
02:08PM 41.4986 -76.4713 110° East 520 598 33,000 -1,440 Descending FlightAware ADS-B
02:08PM 41.4708 -76.3726 111° Southeast 520 598 32,300 -1,260 Descending FlightAware ADS-B
02:09PM 41.4421 -76.2710 111° Southeast 519 597 31,600 -960 Descending FlightAware ADS-B
02:09PM 41.4165 -76.1808 111° Southeast 514 592 31,300 -660 Descending FlightAware ADS-B
02:10PM 41.3864 -76.0740 111° Southeast 508 585 30,900 -900 Descending FlightAware ADS-B
02:10PM 41.3607 -75.9843 111° Southeast 492 566 30,300 -1,080 Descending FlightAware ADS-B
02:11PM 41.3362 -75.8985 111° Southeast 463 533 29,800 -1,020 Descending FlightAware ADS-B
02:11PM 41.3136 -75.8196 111° Southeast 443 510 29,300 -780 Descending FlightAware ADS-B
02:12PM 41.2902 -75.7385 111° Southeast 441 507 29,000 -900 Descending FlightAware ADS-B
02:13PM 41.2646 -75.6569 113° Southeast 438 504 28,400 -1,740 Descending FlightAware ADS-B
02:13PM 41.2408 -75.5911 116° Southeast 434 499 27,300 -2,280 Descending FlightAware ADS-B
02:14PM 41.2176 -75.5170 113° Southeast 428 493 26,200 -2,220 Descending FlightAware ADS-B
02:14PM 41.1946 -75.4443 113° Southeast 423 487 25,100 -2,280 Descending FlightAware ADS-B
02:15PM 41.1697 -75.3695 114° Southeast 419 482 23,900 -1,980 Descending FlightAware ADS-B
02:15PM 41.1441 -75.2952 115° Southeast 417 480 23,000 -900 Descending FlightAware ADS-B
02:16PM 41.1188 -75.2225 115° Southeast 411 473 23,000  Level FlightAware ADS-B
02:16PM 41.0949 -75.1536 115° Southeast 409 471 23,000  Level FlightAware ADS-B
02:17PM 41.0712 -75.0850 115° Southeast 405 466 23,000  Level FlightAware ADS-B
02:17PM 41.0475 -75.0163 115° Southeast 402 463 23,000  Level FlightAware ADS-B
02:18PM 41.0229 -74.9450 115° Southeast 402 463 23,000  Level FlightAware ADS-B
02:18PM 41.0017 -74.8828 114° Southeast 404 465 23,000  Level FlightAware ADS-B
02:19PM 40.9865 -74.8203 108° East 405 466 23,000  Level FlightAware ADS-B
02:19PM 40.9776 -74.7538 100° East 407 468 23,000  Level FlightAware ADS-B
02:20PM 40.9707 -74.6777 97° East 406 467 23,000  Level FlightAware ADS-B
02:20PM 40.9628 -74.5970 97° East 408 470 23,000 -180 Level FlightAware ADS-B
02:20PM 40.9612 -74.5818 98° East 409 471 22,900 -1,500 Descending FlightAware ADS-B
02:21PM 40.9542 -74.5200 99° East 404 465 22,200 -1,980 Descending FlightAware ADS-B
02:21PM 40.9456 -74.4458 99° East 400 460 21,100 -2,100 Descending FlightAware ADS-B
02:22PM 40.9367 -74.3717 99° East 395 455 20,100 -1,260 Descending FlightAware ADS-B
02:22PM 40.9282 -74.2999 99° East 366 421 19,800 -660 Descending FlightAware ADS-B
02:23PM 40.9215 -74.2432 99° East 349 402 19,500 -600 Descending FlightAware ADS-B
02:23PM 40.9208 -74.2359 97° East 342 394 19,500 -420 Level FlightAware ADS-B
02:23PM 40.9137 -74.1775 99° East 323 372 19,300 -420 Descending FlightAware ADS-B
02:23PM 40.9134 -74.1739 96° East 318 366 19,300 -840 Level FlightAware ADS-B
02:23PM 40.9086 -74.1366 100° East 308 354 19,000 -840 Descending FlightAware ADS-B
02:24PM 40.9079 -74.1329 104° East 309 356 19,000  Level FlightAware ADS-B
02:24PM 40.9064 -74.1265 107° East 309 356 19,000  Level FlightAware ADS-B
02:24PM 40.9003 -74.1060 111° Southeast 307 353 19,000 -300 Level FlightAware ADS-B
02:24PM 40.8934 -74.0897 119° Southeast 304 350 18,900 -1,200 Descending FlightAware ADS-B
02:24PM 40.8774 -74.0559 122° Southeast 303 349 18,400 -1,500 Descending FlightAware ADS-B
02:24PM 40.8693 -74.0395 123° Southeast 303 349 18,100 -1,380 Descending FlightAware ADS-B
02:25PM 40.8638 -74.0283 123° Southeast 302 348 18,000 -1,200 Descending FlightAware ADS-B
02:25PM 40.8620 -74.0239 118° Southeast 301 346 17,900 -1,500 Descending FlightAware ADS-B
02:25PM 40.8427 -73.9771 119° Southeast 297 342 17,200 -1,380 Descending FlightAware ADS-B
02:25PM 40.8415 -73.9739 116° Southeast 297 342 17,200 -1,260 Level FlightAware ADS-B
02:26PM 40.8242 -73.9306 118° Southeast 293 337 16,600 -1,380 Descending FlightAware ADS-B
02:26PM 40.8216 -73.9242 118° Southeast 292 336 16,500 -1,320 Descending FlightAware ADS-B
02:26PM 40.8009 -73.8715 117° Southeast 287 330 15,800 -1,380 Descending FlightAware ADS-B
02:27PM 40.7787 -73.8232 121° Southeast 285 328 15,000 -1,320 Descending FlightAware ADS-B
02:27PM 40.7530 -73.7776 127° Southeast 276 318 14,400 -1,140 Descending FlightAware ADS-B
02:28PM 40.7296 -73.7365 127° Southeast 269 310 13,800 -1,200 Descending FlightAware ADS-B
02:28PM 40.7035 -73.6906 127° Southeast 267 307 13,100 -960 Descending FlightAware ADS-B
02:29PM 40.6560 -73.6070 127° Southeast 281 323 12,300 -840 Descending FlightAware
02:30PM 40.6478 -73.5924 127° Southeast 282 325 12,100 -1,080 Descending FlightAware ADS-B
02:30PM 40.6250 -73.5520 127° Southeast 282 325 11,600 -1,080 Descending FlightAware
02:30PM 40.6210 -73.5465 134° Southeast 281 323 11,500 -1,320 Descending FlightAware ADS-B
02:30PM 40.6043 -73.5317 146° Southeast 280 322 11,200 -1,200 Descending FlightAware ADS-B
02:31PM 40.5970 -73.5286 162° South 279 321 11,100 -1,320 Descending FlightAware ADS-B
02:31PM 40.5582 -73.5174 168° South 277 319 10,400 -1,440 Descending FlightAware ADS-B
02:31PM 40.5389 -73.5117 167° South 276 318 10,000 -1,500 Descending FlightAware ADS-B
02:32PM 40.5186 -73.5053 167° South 276 318 9,600 -1,440 Descending FlightAware ADS-B
02:32PM 40.5018 -73.5018 171° South 276 318 9,300 -1,440 Descending FlightAware ADS-B
02:32PM 40.4965 -73.5021 182° South 276 318 9,200 -1,380 Descending FlightAware ADS-B
02:32PM 40.4908 -73.5036 191° South 275 316 9,100 -1,620 Descending FlightAware ADS-B
02:32PM 40.4790 -73.5095 201° Southwest 274 315 8,800 -1,380 Descending FlightAware ADS-B
02:32PM 40.4598 -73.5226 207° Southwest 273 314 8,500 -1,200 Descending FlightAware ADS-B
02:33PM 40.4339 -73.5401 207° Southwest 271 312 8,000 -1,380 Descending FlightAware ADS-B
02:33PM 40.4150 -73.5527 207° Southwest 268 308 7,600 -1,560 Descending FlightAware ADS-B
02:34PM 40.3836 -73.5792 213° Southwest 273 314 6,800 -1,500 Descending FlightAware ADS-B
02:34PM 40.3768 -73.5944 240° Southwest 275 316 6,600 -1,320 Descending FlightAware ADS-B
02:34PM 40.3752 -73.6001 250° West 276 318 6,500 -1,500 Descending FlightAware ADS-B
02:34PM 40.3736 -73.6080 255° West 276 318 6,400 -1,260 Descending FlightAware ADS-B
02:34PM 40.3683 -73.6389 257° West 272 313 6,000 -1,200 Descending FlightAware ADS-B
02:35PM 40.3620 -73.6757 257° West 265 305 5,600 -1,080 Descending FlightAware ADS-B
02:35PM 40.3616 -73.7106 269° West 261 300 5,200 -1,080 Descending FlightAware ADS-B
02:35PM 40.3640 -73.7363 277° West 261 300 4,900 -1,080 Descending FlightAware ADS-B
02:36PM 40.3667 -73.7658 277° West 262 302 4,600 -960 Descending FlightAware ADS-B
02:36PM 40.3684 -73.7849 277° West 261 300 4,400 -780 Descending FlightAware ADS-B
02:36PM 40.3712 -73.8148 277° West 261 300 4,200 -720 Descending FlightAware ADS-B
02:36PM 40.3736 -73.8419 277° West 256 295 4,000 -720 Descending FlightAware ADS-B
02:37PM 40.3763 -73.8696 277° West 244 281 3,800 -540 Descending FlightAware ADS-B
02:37PM 40.3793 -73.8977 278° West 231 266 3,700 -540 Descending FlightAware ADS-B
02:37PM 40.3815 -73.9188 278° West 226 260 3,500 -660 Descending FlightAware ADS-B
02:37PM 40.3839 -73.9362 280° West 219 252 3,400 -660 Descending FlightAware ADS-B
02:38PM 40.3863 -73.9436 293° West 217 250 3,300 -1,020 Descending FlightAware ADS-B
02:38PM 40.3898 -73.9498 307° West 214 246 3,200 -360 Descending FlightAware ADS-B
02:38PM 40.3992 -73.9584 325° Northwest 204 235 3,200 -420 Level FlightAware ADS-B
02:38PM 40.4148 -73.9648 343° North 194 223 3,000 -660 Descending FlightAware ADS-B
02:39PM 40.4450 -73.9690 354° North 186 214 2,600 -300 Descending FlightAware
02:39PM 40.4660 -73.9640 10° North 183 211 2,700 60 Climbing FlightAware
02:40PM 40.4920 -73.9550 15° North 179 206 2,700  Level FlightAware
02:40PM 40.5030 -73.9490 23° Northeast 190 219 2,700 -180 Level FlightAware
02:40PM 40.5230 -73.9370 25° Northeast 191 220 2,600 -600 Descending FlightAware
02:41PM 40.5470 -73.9190 30° Northeast 180 207 2,200 -780 Descending FlightAware
02:41PM 40.5630 -73.9060 32° Northeast 170 196 1,900 -780 Descending FlightAware
02:42PM 40.5740 -73.8970 32° Northeast 170 196 1,700 -960 Descending FlightAware
02:42PM 40.5950 -73.8800 32° Northeast 169 194 1,200 -900 Descending FlightAware
02:42PM 40.6110 -73.8680 30° Northeast 167 192 900 -780 Descending FlightAware
02:43PM 40.6210 -73.8610 28° Northeast 158 182 700 -540 Descending FlightAware
02:43PM 40.6390 -73.8450 34° Northeast 154 177 500 -420 Descending FlightAware
02:43PM 40.6460 -73.8360 44° Northeast 148 170 400 -420 Descending FlightAware
02:44PM 40.6510 -73.8220 65° Northeast 144 166 300 -420 Descending FlightAware
02:44PM 40.6460 -73.8030 109° East 142 163 -720 Descending FlightAware
02:44PM 40.6390 -73.7880 122° Southeast 144 166  Level FlightAware